Tbilisi, Georgia

11:08 AM GET on September 28, 2016 (GMT +0400)
Tbilisi International Air | | Change Station

Elev 1624 ft 41.67 °N, 44.95 °E | Updated 8 minutes ago

Clear
Clear
63 °F
Feels Like 63 °F
N
23
Wind Variable Wind from NNW

Today
High -- | Low -- °F
--% Chance of Precip.
Yesterday
High -- | Low -- °F
Precip. -- in
Pressure 30.15 in
Visibility -9999.0 miles
Clouds
Dew Point 45 °F
Humidity 52%
Rainfall 0.00 in
Snow Depth Not available.
6:54 AM 6:46 PM
Waning Crescent, 7% visible
METAR UGTB 280700Z 33020KT CAVOK 17/07 Q1021 R31L/CLRD70 NOSIG
Pressure 30.15 in
Visibility -9999.0 miles
Clouds
Dew Point 45 °F
Humidity 52%
Rainfall 0.00 in
Snow Depth Not available.
6:54 AM 6:46 PM
Waning Crescent, 7% visible
METAR UGTB 280700Z 33020KT CAVOK 17/07 Q1021 R31L/CLRD70 NOSIG

10-Day Weather Forecast

×

Almanac

Astronomy

Sep. 28, 2016 Rise Set
Actual Time
Civil Twilight
Nautical Twilight
Astronomical Twilight
Moon
Length of Visible Light
Length of Day
Tomorrow will be .
, % of the Moon is Illuminated

Today's Extremes

Country Highs Country Lows

Community

WunderPhotos

Upload Photos

1,942,216 photos uploaded!

WunderBlog® & News

Nearby

Air Quality

  Air Quality AQ Index Pollutant
Not available.

Snow Depth

Station Depth Elevation

Earthquake Activity

City Distance Mag. Time & Date
Minimum magnitude displayed is 2.5.

Coastal Water Temperatures

Place Temperature

Stations

Nearby Weather Stations

Station Location Temp. Windchill Dew Point Humidity Wind Precip. Elev Updated Type